createdAt,value
2022-08-26T00:01:58.935Z,99104.98
2022-08-26T00:04:52.474Z,99103.38
2022-08-26T00:07:44.567Z,99103.39
2022-08-26T00:10:38.780Z,99102.56
2022-08-26T00:13:30.954Z,99105.79
2022-08-26T00:16:23.646Z,99101.11
2022-08-26T00:19:15.966Z,99100.30
2022-08-26T00:22:08.316Z,99100.14
2022-08-26T00:25:00.444Z,99102.07
2022-08-26T00:27:53.337Z,99102.80
2022-08-26T00:30:48.209Z,99103.08
2022-08-26T00:33:44.049Z,99103.48
2022-08-26T00:36:36.618Z,99105.98
2022-08-26T00:39:28.641Z,99107.57
2022-08-26T00:42:21.083Z,99109.51
2022-08-26T00:45:14.813Z,99107.38
2022-08-26T00:48:09.015Z,99112.11
2022-08-26T00:51:05.522Z,99112.64
2022-08-26T00:54:03.629Z,99116.84
2022-08-26T00:56:59.951Z,99117.61
2022-08-26T00:59:58.268Z,99116.73
2022-08-26T01:02:52.214Z,99115.33
2022-08-26T01:05:45.094Z,99119.98
2022-08-26T01:08:38.508Z,99119.59
2022-08-26T01:11:31.658Z,99119.35
2022-08-26T01:14:25.741Z,99122.55
2022-08-26T01:17:17.856Z,99123.17
2022-08-26T01:19:52.298Z,99121.85
2022-08-26T01:22:56.170Z,99126.05
2022-08-26T01:25:51.842Z,99125.95
2022-08-26T01:28:44.678Z,99124.98
2022-08-26T01:31:37.889Z,99125.90
2022-08-26T01:34:35.122Z,99125.59
2022-08-26T01:37:33.525Z,99123.77
2022-08-26T01:40:29.223Z,99125.83
2022-08-26T01:43:29.040Z,99125.65
2022-08-26T01:46:22.899Z,99124.64
2022-08-26T01:49:17.412Z,99125.34
2022-08-26T01:52:11.508Z,99129.56
2022-08-26T01:55:06.029Z,99134.55
2022-08-26T01:57:53.325Z,99132.46
2022-08-26T02:00:49.203Z,99133.23
2022-08-26T02:03:57.214Z,99132.14
2022-08-26T02:06:40.418Z,99129.10
2022-08-26T02:09:32.646Z,99123.45
2022-08-26T02:12:33.726Z,99126.09
2022-08-26T02:15:26.122Z,99128.91
2022-08-26T02:18:18.690Z,99125.23
2022-08-26T02:21:13.239Z,99122.66
2022-08-26T02:24:16.483Z,99121.56
2022-08-26T02:27:09.931Z,99120.92
2022-08-26T02:30:08.594Z,99123.09
2022-08-26T02:33:03.802Z,99122.42
2022-08-26T02:35:57.040Z,99123.11
2022-08-26T02:38:49.157Z,99117.82
2022-08-26T02:41:45.294Z,99117.80
2022-08-26T02:44:40.005Z,99117.32
2022-08-26T02:47:33.512Z,99114.61
2022-08-26T02:50:26.289Z,99111.91
2022-08-26T02:53:25.008Z,99109.37
2022-08-26T02:56:17.662Z,99104.13
2022-08-26T02:59:12.449Z,99103.89
2022-08-26T03:02:04.679Z,99104.55
2022-08-26T03:04:57.875Z,99106.16
2022-08-26T03:07:54.290Z,99112.30
2022-08-26T03:10:46.580Z,99115.95
2022-08-26T03:13:40.758Z,99114.17
2022-08-26T03:16:34.076Z,99116.66
2022-08-26T03:19:27.280Z,99118.30
2022-08-26T03:22:19.335Z,99112.52
2022-08-26T03:25:15.981Z,99110.19
2022-08-26T03:28:09.658Z,99107.02
2022-08-26T03:31:01.979Z,99105.77
2022-08-26T03:33:57.638Z,99102.20
2022-08-26T03:36:52.802Z,99103.38
2022-08-26T03:39:44.776Z,99106.61
2022-08-26T03:42:37.856Z,99104.16
2022-08-26T03:45:30.473Z,99106.81
2022-08-26T03:48:22.577Z,99102.63
2022-08-26T03:51:18.388Z,99098.94
2022-08-26T03:54:11.009Z,99103.91
2022-08-26T03:57:03.488Z,99097.20
2022-08-26T03:59:55.539Z,99095.24
2022-08-26T04:02:41.263Z,99096.52
2022-08-26T04:05:33.431Z,99098.92
2022-08-26T04:08:25.947Z,99101.61
2022-08-26T04:11:22.957Z,99098.31
2022-08-26T04:14:20.064Z,99097.94
2022-08-26T04:17:12.344Z,99100.73
2022-08-26T04:20:05.073Z,99098.06
2022-08-26T04:22:58.688Z,99096.95
2022-08-26T04:25:51.635Z,99095.55
2022-08-26T04:28:26.681Z,99092.75
2022-08-26T04:31:14.662Z,99095.41
2022-08-26T04:34:01.597Z,99098.29
2022-08-26T04:36:44.231Z,99095.23
2022-08-26T04:39:27.648Z,99098.30
2022-08-26T04:42:25.970Z,99099.14
2022-08-26T04:45:14.186Z,99099.79
2022-08-26T04:48:06.918Z,99097.80
2022-08-26T04:51:04.475Z,99098.31
2022-08-26T04:53:58.729Z,99096.29
2022-08-26T04:56:46.508Z,99099.50
2022-08-26T04:59:39.560Z,99096.64
2022-08-26T05:02:31.703Z,99098.59
2022-08-26T05:05:24.862Z,99098.58
2022-08-26T05:08:18.435Z,99101.66
2022-08-26T05:11:07.560Z,99097.86
2022-08-26T05:14:02.223Z,99100.10
2022-08-26T05:16:54.803Z,99101.13
2022-08-26T05:19:47.229Z,99100.65
2022-08-26T05:22:39.514Z,99101.56
2022-08-26T05:25:31.728Z,99106.08
2022-08-26T05:28:24.420Z,99106.27
2022-08-26T05:31:19.711Z,99113.39
2022-08-26T05:34:12.058Z,99115.88
2022-08-26T05:37:04.757Z,99111.91
2022-08-26T05:39:57.353Z,99112.39
2022-08-26T05:42:50.460Z,99115.19
2022-08-26T05:45:46.519Z,99110.22
2022-08-26T05:48:39.822Z,99110.73
2022-08-26T05:51:37.672Z,99111.65
2022-08-26T05:54:22.255Z,99110.02
2022-08-26T05:57:03.359Z,99103.09
2022-08-26T05:59:55.613Z,99102.26
2022-08-26T06:02:38.801Z,99098.23
2022-08-26T06:05:33.288Z,99100.88
2022-08-26T06:08:27.546Z,99099.19
2022-08-26T06:11:25.458Z,99097.76
2022-08-26T06:14:18.354Z,99096.46
2022-08-26T06:17:10.522Z,99094.92
2022-08-26T06:20:02.750Z,99094.09
2022-08-26T06:23:12.279Z,99090.81
2022-08-26T06:26:05.607Z,99091.63
2022-08-26T06:28:57.702Z,99095.98
2022-08-26T06:31:50.131Z,99096.28
2022-08-26T06:34:43.874Z,99094.98
2022-08-26T06:37:35.813Z,99094.43
2022-08-26T06:40:22.769Z,99096.39
2022-08-26T06:43:15.342Z,99097.93
2022-08-26T06:46:14.465Z,99095.80
2022-08-26T06:49:07.195Z,99097.21
2022-08-26T06:51:52.776Z,99094.65
2022-08-26T06:54:45.008Z,99095.20
2022-08-26T06:57:32.879Z,99096.67
2022-08-26T07:00:11.953Z,99095.80
2022-08-26T07:03:04.807Z,99096.71
2022-08-26T07:06:01.872Z,99096.30
2022-08-26T07:09:06.500Z,99090.92
2022-08-26T07:12:02.446Z,99088.86
2022-08-26T07:14:55.350Z,99086.48
2022-08-26T07:17:49.717Z,99083.05
2022-08-26T07:20:42.995Z,99083.71
2022-08-26T07:23:36.115Z,99084.69
2022-08-26T07:26:25.121Z,99083.23
2022-08-26T07:29:17.430Z,99082.79
2022-08-26T07:32:10.858Z,99078.92
2022-08-26T07:35:03.161Z,99081.59
2022-08-26T07:37:57.042Z,99078.15
2022-08-26T07:40:49.227Z,99079.54
2022-08-26T07:43:42.252Z,99075.19
2022-08-26T07:46:35.035Z,99072.70
2022-08-26T07:49:28.173Z,99072.27
2022-08-26T07:52:13.918Z,99071.10
2022-08-26T07:54:51.111Z,99066.98
2022-08-26T07:57:43.210Z,99066.37
2022-08-26T08:00:36.054Z,99064.63
2022-08-26T08:03:28.079Z,99061.48
2022-08-26T08:06:23.224Z,99056.88
2022-08-26T08:09:18.193Z,99053.75
2022-08-26T08:12:04.160Z,99058.87
2022-08-26T08:14:51.460Z,99055.92
2022-08-26T08:17:36.296Z,99050.84
2022-08-26T08:20:19.700Z,99052.21
2022-08-26T08:23:11.686Z,99047.85
2022-08-26T08:26:01.433Z,99049.33
2022-08-26T08:28:47.899Z,99049.66
2022-08-26T08:31:52.084Z,99048.70
2022-08-26T08:34:37.910Z,99045.92
2022-08-26T08:37:30.016Z,99041.92
2022-08-26T08:40:18.476Z,99039.88
2022-08-26T08:43:14.720Z,99036.95
2022-08-26T08:46:11.389Z,99033.55
2022-08-26T08:49:04.307Z,99033.98
2022-08-26T08:51:43.973Z,99037.64
2022-08-26T08:54:26.458Z,99035.45
2022-08-26T08:57:27.443Z,99033.77
2022-08-26T09:00:18.141Z,99030.94
2022-08-26T09:03:16.922Z,99030.63
2022-08-26T09:05:51.579Z,99028.48
2022-08-26T09:08:45.111Z,99029.02
2022-08-26T09:11:30.600Z,99028.27
2022-08-26T09:14:23.032Z,99029.91
2022-08-26T09:17:24.380Z,99031.69
2022-08-26T09:20:14.090Z,99031.73
2022-08-26T09:23:00.363Z,99030.42
2022-08-26T09:28:33.422Z,99030.61
2022-08-26T09:31:15.098Z,99029.81
2022-08-26T09:33:47.161Z,99026.95
2022-08-26T09:36:41.345Z,99024.42
2022-08-26T09:39:33.177Z,99026.02
2022-08-26T09:42:14.246Z,99020.11
2022-08-26T09:45:03.720Z,99021.09
2022-08-26T09:47:39.183Z,99019.02
2022-08-26T09:50:31.100Z,99014.97
2022-08-26T09:53:28.782Z,99013.17
2022-08-26T09:56:32.209Z,99008.31
2022-08-26T09:59:32.917Z,99007.56
2022-08-26T10:02:24.684Z,99005.55
2022-08-26T10:05:29.392Z,99005.48
2022-08-26T10:08:27.118Z,99005.27
2022-08-26T10:11:23.311Z,99004.16
2022-08-26T10:14:03.369Z,99005.73
2022-08-26T10:16:48.145Z,99001.30
2022-08-26T10:19:56.275Z,98997.94
2022-08-26T10:22:59.402Z,99000.79
2022-08-26T10:25:59.006Z,98997.53
2022-08-26T10:29:07.680Z,98995.91
2022-08-26T10:32:05.797Z,98993.21
2022-08-26T10:34:58.227Z,98997.42
2022-08-26T10:37:54.235Z,98991.52
2022-08-26T10:40:56.316Z,98988.39
2022-08-26T10:43:43.938Z,98990.83
2022-08-26T10:46:43.832Z,98986.50
2022-08-26T10:49:37.095Z,98988.17
2022-08-26T10:52:42.872Z,98985.51
2022-08-26T10:55:41.951Z,98978.31
2022-08-26T10:58:55.530Z,98986.42
2022-08-26T11:01:53.851Z,98980.64
2022-08-26T11:04:52.349Z,98972.33
2022-08-26T11:07:46.314Z,98966.52
2022-08-26T11:11:08.427Z,98962.07
2022-08-26T11:14:05.095Z,98962.92
2022-08-26T11:16:58.814Z,98955.73
2022-08-26T11:20:09.198Z,98949.72
2022-08-26T11:23:36.341Z,98944.10
2022-08-26T11:26:55.693Z,98942.77
2022-08-26T11:30:05.203Z,98944.65
2022-08-26T11:32:52.221Z,98941.04
2022-08-26T11:35:48.352Z,98942.88
2022-08-26T11:38:33.589Z,98942.49
2022-08-26T11:41:18.385Z,98939.39
2022-08-26T11:44:07.209Z,98936.20
2022-08-26T11:47:03.189Z,98931.55
2022-08-26T11:50:09.609Z,98924.52
2022-08-26T11:52:53.599Z,98926.00
2022-08-26T11:55:45.772Z,98921.73
2022-08-26T11:58:28.531Z,98918.52
2022-08-26T12:01:22.526Z,98918.87
2022-08-26T12:04:07.670Z,98911.21
2022-08-26T12:07:01.490Z,98908.76
2022-08-26T12:09:51.786Z,98905.77
2022-08-26T12:12:34.702Z,98909.68
2022-08-26T12:15:22.250Z,98906.61
2022-08-26T12:18:29.005Z,98899.05
2022-08-26T12:21:25.740Z,98900.09
2022-08-26T12:24:21.324Z,98902.15
2022-08-26T12:27:23.196Z,98898.00
2022-08-26T12:30:12.407Z,98897.20
2022-08-26T12:33:22.014Z,98892.67
2022-08-26T12:36:19.278Z,98889.40
2022-08-26T12:39:15.698Z,98885.07
2022-08-26T12:42:22.610Z,98887.10
2022-08-26T12:45:00.119Z,98881.75
2022-08-26T12:47:58.058Z,98884.17
2022-08-26T12:50:52.283Z,98879.90
2022-08-26T12:53:45.787Z,98878.25
2022-08-26T12:56:39.966Z,98880.16
2022-08-26T12:59:32.027Z,98875.63
2022-08-26T13:02:33.906Z,98872.09
2022-08-26T13:05:23.297Z,98863.02
2022-08-26T13:08:17.826Z,98869.99
2022-08-26T13:11:15.637Z,98865.64
2022-08-26T13:14:01.804Z,98860.27
2022-08-26T13:16:54.375Z,98861.98
2022-08-26T13:19:46.433Z,98855.95
2022-08-26T13:22:30.663Z,98854.75
2022-08-26T13:25:22.644Z,98854.98
2022-08-26T13:28:05.391Z,98847.99
2022-08-26T13:30:50.718Z,98847.11
2022-08-26T13:33:37.673Z,98847.14
2022-08-26T13:36:20.998Z,98844.68
2022-08-26T13:39:13.553Z,98847.92
2022-08-26T13:42:05.830Z,98842.20
2022-08-26T13:44:44.491Z,98842.38
2022-08-26T13:47:31.791Z,98841.83
2022-08-26T13:50:23.959Z,98837.67
2022-08-26T13:53:17.214Z,98834.15
2022-08-26T13:55:49.358Z,98836.80
2022-08-26T13:58:41.616Z,98839.12
2022-08-26T14:01:35.373Z,98835.38
2022-08-26T14:04:27.590Z,98837.63
2022-08-26T14:07:19.764Z,98830.52
2022-08-26T14:10:12.552Z,98836.05
2022-08-26T14:13:04.603Z,98830.20
2022-08-26T14:15:50.672Z,98837.95
2022-08-26T14:18:48.569Z,98835.55
2022-08-26T14:21:42.124Z,98833.21
2022-08-26T14:24:32.992Z,98831.30
2022-08-26T14:27:25.436Z,98832.96
2022-08-26T14:30:18.671Z,98833.23
2022-08-26T14:33:01.152Z,98833.09
2022-08-26T14:35:47.986Z,98829.08
2022-08-26T14:38:42.041Z,98827.64
2022-08-26T14:41:36.383Z,98821.81
2022-08-26T14:44:31.302Z,98819.68
2022-08-26T14:47:23.426Z,98820.48
2022-08-26T14:50:07.848Z,98820.01
2022-08-26T14:53:17.491Z,98818.67
2022-08-26T14:55:59.450Z,98811.42
2022-08-26T14:58:51.505Z,98809.45
2022-08-26T15:01:30.989Z,98809.86
2022-08-26T15:04:24.183Z,98808.27
2022-08-26T15:07:16.215Z,98810.82
2022-08-26T15:10:12.030Z,98804.93
2022-08-26T15:12:48.851Z,98803.73
2022-08-26T15:15:30.896Z,98802.82
2022-08-26T15:18:23.597Z,98802.10
2022-08-26T15:21:15.810Z,98798.98
2022-08-26T15:24:01.023Z,98800.16
2022-08-26T15:26:45.895Z,98800.44
2022-08-26T15:29:30.609Z,98803.05
2022-08-26T15:32:14.434Z,98800.63
2022-08-26T15:34:50.099Z,98799.61
2022-08-26T15:37:32.446Z,98798.40
2022-08-26T15:40:26.752Z,98800.59
2022-08-26T15:43:28.790Z,98800.13
2022-08-26T15:46:21.862Z,98798.67
2022-08-26T15:49:18.142Z,98800.12
2022-08-26T15:52:09.441Z,98799.44
2022-08-26T15:55:01.600Z,98797.36
2022-08-26T15:57:37.047Z,98799.55
2022-08-26T16:00:29.839Z,98802.88
2022-08-26T16:03:22.075Z,98802.13
2022-08-26T16:06:05.282Z,98803.13
2022-08-26T16:08:57.551Z,98804.02
2022-08-26T16:11:47.204Z,98799.76
2022-08-26T16:14:19.182Z,98802.34
2022-08-26T16:17:11.677Z,98800.63
2022-08-26T16:20:04.904Z,98800.58
2022-08-26T16:22:57.184Z,98796.11
2022-08-26T16:25:49.777Z,98793.33
2022-08-26T16:28:34.511Z,98792.36
2022-08-26T16:31:26.888Z,98788.13
2022-08-26T16:34:18.700Z,98788.20
2022-08-26T16:37:03.643Z,98786.27
2022-08-26T16:39:55.708Z,98783.56
2022-08-26T16:42:40.479Z,98785.86
2022-08-26T16:45:32.256Z,98785.02
2022-08-26T16:48:24.876Z,98782.50
2022-08-26T16:51:18.888Z,98784.02
2022-08-26T16:54:11.131Z,98781.58
2022-08-26T16:57:03.514Z,98785.23
2022-08-26T16:59:55.568Z,98783.75
2022-08-26T17:02:40.601Z,98781.56
2022-08-26T17:05:32.770Z,98782.67
2022-08-26T17:08:28.390Z,98784.83
2022-08-26T17:11:21.054Z,98785.18
2022-08-26T17:14:13.724Z,98790.60
2022-08-26T17:16:45.688Z,98784.58
2022-08-26T17:19:34.528Z,98790.96
2022-08-26T17:22:25.797Z,98791.08
2022-08-26T17:25:16.021Z,98788.59
2022-08-26T17:28:13.537Z,98789.45
2022-08-26T17:31:06.177Z,98793.06
2022-08-26T17:33:58.398Z,98790.94
2022-08-26T17:36:50.699Z,98788.17
2022-08-26T17:39:44.104Z,98785.73
2022-08-26T17:42:31.334Z,98788.39
2022-08-26T17:45:24.020Z,98790.58
2022-08-26T17:48:14.716Z,98790.98
2022-08-26T17:51:12.552Z,98786.48
2022-08-26T17:54:04.754Z,98786.35
2022-08-26T17:56:57.256Z,98789.96
2022-08-26T17:59:49.283Z,98789.48
2022-08-26T18:02:40.831Z,98782.67
2022-08-26T18:05:32.857Z,98786.02
2022-08-26T18:08:14.766Z,98789.39
2022-08-26T18:11:11.202Z,98786.92
2022-08-26T18:13:47.595Z,98789.79
2022-08-26T18:16:31.971Z,98791.84
2022-08-26T18:19:24.021Z,98794.04
2022-08-26T18:22:16.020Z,98793.93
2022-08-26T18:25:09.829Z,98794.73
2022-08-26T18:28:01.875Z,98790.80
2022-08-26T18:30:54.003Z,98791.55
2022-08-26T18:33:50.126Z,98787.37
2022-08-26T18:36:43.196Z,98788.85
2022-08-26T18:39:35.256Z,98789.41
2022-08-26T18:42:27.490Z,98783.95
2022-08-26T18:45:19.782Z,98786.62
2022-08-26T18:48:12.126Z,98790.33
2022-08-26T18:51:05.243Z,98788.93
2022-08-26T18:53:58.312Z,98788.25
2022-08-26T18:56:33.637Z,98786.20
2022-08-26T18:59:27.953Z,98785.55
2022-08-26T19:02:15.342Z,98790.98
2022-08-26T19:05:08.673Z,98791.09
2022-08-26T19:08:00.845Z,98789.54
2022-08-26T19:10:53.128Z,98792.41
2022-08-26T19:13:46.052Z,98794.19
2022-08-26T19:16:39.072Z,98796.16
2022-08-26T19:19:31.857Z,98797.18
2022-08-26T19:22:24.752Z,98792.73
2022-08-26T19:25:17.527Z,98793.99
2022-08-26T19:27:52.464Z,98793.65
2022-08-26T19:30:47.567Z,98791.68
2022-08-26T19:33:35.057Z,98795.95
2022-08-26T19:36:28.488Z,98797.35
2022-08-26T19:39:20.785Z,98801.75
2022-08-26T19:42:12.837Z,98802.84
2022-08-26T19:45:24.569Z,98800.13
2022-08-26T19:48:11.429Z,98805.17
2022-08-26T19:51:02.387Z,98801.90
2022-08-26T19:53:44.733Z,98802.67
2022-08-26T19:56:30.229Z,98802.14
2022-08-26T19:59:14.634Z,98798.92
2022-08-26T20:02:01.376Z,98799.88
2022-08-26T20:04:41.989Z,98801.90
2022-08-26T20:07:34.069Z,98803.04
2022-08-26T20:10:27.020Z,98800.68
2022-08-26T20:13:19.608Z,98801.19
2022-08-26T20:16:12.331Z,98803.73
2022-08-26T20:19:21.548Z,98809.02
2022-08-26T20:22:16.001Z,98812.91
2022-08-26T20:25:09.030Z,98816.52
2022-08-26T20:27:54.362Z,98815.37
2022-08-26T20:30:46.443Z,98819.42
2022-08-26T20:33:39.850Z,98815.73
2022-08-26T20:36:41.755Z,98812.92
2022-08-26T20:39:33.886Z,98812.90
2022-08-26T20:42:26.429Z,98813.50
2022-08-26T20:45:11.270Z,98814.11
2022-08-26T20:48:03.561Z,98817.33
2022-08-26T20:50:59.428Z,98814.70
2022-08-26T20:53:45.204Z,98814.48
2022-08-26T20:56:38.037Z,98821.27
2022-08-26T20:59:30.175Z,98824.88
2022-08-26T21:02:23.502Z,98822.38
2022-08-26T21:05:15.722Z,98821.52
2022-08-26T21:08:07.902Z,98821.31
2022-08-26T21:10:51.296Z,98821.62
2022-08-26T21:13:48.585Z,98820.43
2022-08-26T21:16:34.470Z,98819.45
2022-08-26T21:19:21.163Z,98823.59
2022-08-26T21:22:13.220Z,98821.84
2022-08-26T21:24:59.016Z,98826.39
2022-08-26T21:27:51.189Z,98827.73
2022-08-26T21:30:43.463Z,98829.41
2022-08-26T21:33:35.749Z,98826.23
2022-08-26T21:36:21.157Z,98828.27
2022-08-26T21:39:13.947Z,98828.22
2022-08-26T21:42:06.341Z,98827.94
2022-08-26T21:44:58.401Z,98827.67
2022-08-26T21:47:49.357Z,98826.52
2022-08-26T21:50:41.586Z,98829.48
2022-08-26T21:53:33.839Z,98829.61
2022-08-26T21:56:28.084Z,98831.63
2022-08-26T21:59:21.292Z,98829.80
2022-08-26T22:02:13.653Z,98822.51
2022-08-26T22:05:07.336Z,98821.80
2022-08-26T22:07:59.478Z,98821.52
2022-08-26T22:10:53.805Z,98820.64
2022-08-26T22:13:30.033Z,98828.23
2022-08-26T22:16:22.470Z,98833.20
2022-08-26T22:19:17.253Z,98832.73
2022-08-26T22:21:50.970Z,98837.41
2022-08-26T22:24:32.594Z,98836.09
2022-08-26T22:27:25.671Z,98833.64
2022-08-26T22:30:19.959Z,98833.78
2022-08-26T22:33:06.406Z,98835.53
2022-08-26T22:35:41.073Z,98838.48
2022-08-26T22:38:33.531Z,98841.25
2022-08-26T22:41:25.868Z,98842.91
2022-08-26T22:44:18.970Z,98843.41
2022-08-26T22:47:11.038Z,98839.29
2022-08-26T22:49:59.317Z,98835.13
2022-08-26T22:52:51.470Z,98835.29
2022-08-26T22:55:37.234Z,98833.58
2022-08-26T22:58:30.953Z,98832.94
2022-08-26T23:01:15.659Z,98827.61
2022-08-26T23:03:58.742Z,98824.25
2022-08-26T23:06:50.857Z,98825.72
2022-08-26T23:09:43.074Z,98824.40
2022-08-26T23:12:37.172Z,98825.31
2022-08-26T23:15:29.402Z,98828.19
2022-08-26T23:18:22.697Z,98827.64
2022-08-26T23:21:15.338Z,98818.80
2022-08-26T23:24:09.122Z,98817.27
2022-08-26T23:27:02.199Z,98815.23
2022-08-26T23:29:54.259Z,98813.02
2022-08-26T23:32:46.361Z,98807.50
2022-08-26T23:35:38.520Z,98805.92
2022-08-26T23:38:26.217Z,98807.36
2022-08-26T23:41:18.364Z,98804.97
2022-08-26T23:44:10.514Z,98804.42
2022-08-26T23:47:03.429Z,98800.65
2022-08-26T23:49:54.086Z,98799.55
2022-08-26T23:52:56.417Z,98800.23
2022-08-26T23:55:49.807Z,98800.52
2022-08-26T23:58:42.973Z,98797.87
